sensor_id;sensor_type;location;lat;lon;timestamp;P1;durP1;ratioP1;P2;durP2;ratioP2
6499;SDS011;3283;52.330;9.772;2022-10-26T00:00:43;26.43;;;10.20;;
6499;SDS011;3283;52.330;9.772;2022-10-26T00:03:09;30.53;;;10.97;;
6499;SDS011;3283;52.330;9.772;2022-10-26T00:05:35;31.63;;;10.70;;
6499;SDS011;3283;52.330;9.772;2022-10-26T00:08:01;32.67;;;11.43;;
6499;SDS011;3283;52.330;9.772;2022-10-26T00:10:26;31.00;;;10.20;;
6499;SDS011;3283;52.330;9.772;2022-10-26T00:12:52;22.23;;;9.13;;
6499;SDS011;3283;52.330;9.772;2022-10-26T00:15:18;29.27;;;10.50;;
6499;SDS011;3283;52.330;9.772;2022-10-26T00:17:44;32.17;;;11.90;;
6499;SDS011;3283;52.330;9.772;2022-10-26T00:20:11;24.27;;;9.80;;
6499;SDS011;3283;52.330;9.772;2022-10-26T00:22:37;29.43;;;10.60;;
6499;SDS011;3283;52.330;9.772;2022-10-26T00:25:03;27.60;;;9.93;;
6499;SDS011;3283;52.330;9.772;2022-10-26T00:27:30;31.73;;;10.63;;
6499;SDS011;3283;52.330;9.772;2022-10-26T00:29:58;42.30;;;10.83;;
6499;SDS011;3283;52.330;9.772;2022-10-26T00:32:25;33.33;;;11.33;;
6499;SDS011;3283;52.330;9.772;2022-10-26T00:34:50;36.37;;;12.20;;
6499;SDS011;3283;52.330;9.772;2022-10-26T00:37:16;19.37;;;8.97;;
6499;SDS011;3283;52.330;9.772;2022-10-26T00:39:41;27.10;;;10.67;;
6499;SDS011;3283;52.330;9.772;2022-10-26T00:42:09;23.07;;;9.23;;
6499;SDS011;3283;52.330;9.772;2022-10-26T00:47:14;23.83;;;9.47;;
6499;SDS011;3283;52.330;9.772;2022-10-26T00:49:49;28.27;;;10.83;;
6499;SDS011;3283;52.330;9.772;2022-10-26T00:52:18;27.93;;;9.87;;
6499;SDS011;3283;52.330;9.772;2022-10-26T00:54:44;23.53;;;8.87;;
6499;SDS011;3283;52.330;9.772;2022-10-26T00:57:10;24.40;;;10.50;;
6499;SDS011;3283;52.330;9.772;2022-10-26T00:59:38;34.70;;;11.43;;
6499;SDS011;3283;52.330;9.772;2022-10-26T01:02:04;27.53;;;9.97;;
6499;SDS011;3283;52.330;9.772;2022-10-26T01:04:31;28.63;;;10.30;;
6499;SDS011;3283;52.330;9.772;2022-10-26T01:06:57;21.83;;;8.60;;
6499;SDS011;3283;52.330;9.772;2022-10-26T01:09:24;30.27;;;10.17;;
6499;SDS011;3283;52.330;9.772;2022-10-26T01:11:51;23.40;;;8.60;;
6499;SDS011;3283;52.330;9.772;2022-10-26T01:14:16;23.43;;;9.73;;
6499;SDS011;3283;52.330;9.772;2022-10-26T01:22:26;27.80;;;10.67;;
6499;SDS011;3283;52.330;9.772;2022-10-26T01:27:49;34.23;;;11.10;;
6499;SDS011;3283;52.330;9.772;2022-10-26T01:35:48;26.70;;;9.50;;
6499;SDS011;3283;52.330;9.772;2022-10-26T01:38:46;41.63;;;11.77;;
6499;SDS011;3283;52.330;9.772;2022-10-26T01:43:45;28.57;;;9.90;;
6499;SDS011;3283;52.330;9.772;2022-10-26T01:46:18;30.13;;;10.60;;
6499;SDS011;3283;52.330;9.772;2022-10-26T01:48:46;31.17;;;9.83;;
6499;SDS011;3283;52.330;9.772;2022-10-26T01:51:15;29.37;;;10.37;;
6499;SDS011;3283;52.330;9.772;2022-10-26T01:53:45;30.03;;;10.77;;
6499;SDS011;3283;52.330;9.772;2022-10-26T01:56:21;27.40;;;10.50;;
6499;SDS011;3283;52.330;9.772;2022-10-26T02:01:41;27.10;;;10.27;;
6499;SDS011;3283;52.330;9.772;2022-10-26T02:15:22;27.00;;;9.80;;
6499;SDS011;3283;52.330;9.772;2022-10-26T02:20:22;21.97;;;8.60;;
6499;SDS011;3283;52.330;9.772;2022-10-26T02:22:52;31.53;;;9.30;;
6499;SDS011;3283;52.330;9.772;2022-10-26T02:25:24;29.73;;;10.03;;
6499;SDS011;3283;52.330;9.772;2022-10-26T02:27:57;27.50;;;9.40;;
6499;SDS011;3283;52.330;9.772;2022-10-26T02:30:26;24.00;;;8.67;;
6499;SDS011;3283;52.330;9.772;2022-10-26T02:32:53;27.60;;;9.80;;
6499;SDS011;3283;52.330;9.772;2022-10-26T02:35:23;24.17;;;9.30;;
6499;SDS011;3283;52.330;9.772;2022-10-26T02:37:52;27.53;;;8.90;;
6499;SDS011;3283;52.330;9.772;2022-10-26T02:40:21;19.90;;;8.83;;
6499;SDS011;3283;52.330;9.772;2022-10-26T02:42:50;25.80;;;10.20;;
6499;SDS011;3283;52.330;9.772;2022-10-26T02:45:20;25.03;;;9.50;;
6499;SDS011;3283;52.330;9.772;2022-10-26T02:47:53;27.23;;;9.13;;
6499;SDS011;3283;52.330;9.772;2022-10-26T02:50:20;23.87;;;9.40;;
6499;SDS011;3283;52.330;9.772;2022-10-26T02:53:21;24.00;;;8.80;;
6499;SDS011;3283;52.330;9.772;2022-10-26T02:55:52;26.73;;;9.40;;
6499;SDS011;3283;52.330;9.772;2022-10-26T02:58:38;28.87;;;10.60;;
6499;SDS011;3283;52.330;9.772;2022-10-26T03:01:07;22.47;;;7.73;;
6499;SDS011;3283;52.330;9.772;2022-10-26T03:03:33;22.77;;;9.50;;
6499;SDS011;3283;52.330;9.772;2022-10-26T03:05:59;24.30;;;9.13;;
6499;SDS011;3283;52.330;9.772;2022-10-26T03:08:25;27.67;;;8.63;;
6499;SDS011;3283;52.330;9.772;2022-10-26T03:10:50;25.87;;;8.67;;
6499;SDS011;3283;52.330;9.772;2022-10-26T03:13:15;23.67;;;8.47;;
6499;SDS011;3283;52.330;9.772;2022-10-26T03:15:41;28.13;;;9.10;;
6499;SDS011;3283;52.330;9.772;2022-10-26T03:18:07;24.90;;;8.63;;
6499;SDS011;3283;52.330;9.772;2022-10-26T03:20:32;21.00;;;7.97;;
6499;SDS011;3283;52.330;9.772;2022-10-26T03:22:58;21.20;;;7.63;;
6499;SDS011;3283;52.330;9.772;2022-10-26T03:25:23;24.30;;;8.33;;
6499;SDS011;3283;52.330;9.772;2022-10-26T03:27:56;28.30;;;8.83;;
6499;SDS011;3283;52.330;9.772;2022-10-26T03:30:22;35.53;;;10.67;;
6499;SDS011;3283;52.330;9.772;2022-10-26T03:32:48;23.50;;;8.63;;
6499;SDS011;3283;52.330;9.772;2022-10-26T03:35:14;22.13;;;8.30;;
6499;SDS011;3283;52.330;9.772;2022-10-26T03:37:39;21.07;;;7.83;;
6499;SDS011;3283;52.330;9.772;2022-10-26T03:40:05;30.00;;;9.03;;
6499;SDS011;3283;52.330;9.772;2022-10-26T03:42:37;24.53;;;8.60;;
6499;SDS011;3283;52.330;9.772;2022-10-26T03:45:04;24.73;;;7.87;;
6499;SDS011;3283;52.330;9.772;2022-10-26T03:47:30;21.37;;;8.23;;
6499;SDS011;3283;52.330;9.772;2022-10-26T03:49:56;20.37;;;7.67;;
6499;SDS011;3283;52.330;9.772;2022-10-26T03:52:22;20.43;;;7.27;;
6499;SDS011;3283;52.330;9.772;2022-10-26T03:54:49;22.33;;;8.33;;
6499;SDS011;3283;52.330;9.772;2022-10-26T03:57:14;18.10;;;6.37;;
6499;SDS011;3283;52.330;9.772;2022-10-26T03:59:40;20.13;;;7.30;;
6499;SDS011;3283;52.330;9.772;2022-10-26T04:02:06;62.77;;;14.60;;
6499;SDS011;3283;52.330;9.772;2022-10-26T04:04:31;22.50;;;8.10;;
6499;SDS011;3283;52.330;9.772;2022-10-26T04:06:57;21.73;;;7.37;;
6499;SDS011;3283;52.330;9.772;2022-10-26T04:09:22;19.40;;;7.30;;
6499;SDS011;3283;52.330;9.772;2022-10-26T04:11:48;25.73;;;7.77;;
6499;SDS011;3283;52.330;9.772;2022-10-26T04:14:13;23.23;;;6.90;;
6499;SDS011;3283;52.330;9.772;2022-10-26T04:16:39;25.77;;;8.13;;
6499;SDS011;3283;52.330;9.772;2022-10-26T04:19:04;15.13;;;6.50;;
6499;SDS011;3283;52.330;9.772;2022-10-26T04:21:30;24.53;;;8.20;;
6499;SDS011;3283;52.330;9.772;2022-10-26T04:23:57;30.13;;;8.60;;
6499;SDS011;3283;52.330;9.772;2022-10-26T04:26:23;20.50;;;6.77;;
6499;SDS011;3283;52.330;9.772;2022-10-26T04:28:48;21.23;;;7.50;;
6499;SDS011;3283;52.330;9.772;2022-10-26T04:31:14;19.40;;;6.57;;
6499;SDS011;3283;52.330;9.772;2022-10-26T04:33:40;21.43;;;7.47;;
6499;SDS011;3283;52.330;9.772;2022-10-26T04:36:05;16.43;;;6.30;;
6499;SDS011;3283;52.330;9.772;2022-10-26T04:38:31;20.70;;;6.93;;
6499;SDS011;3283;52.330;9.772;2022-10-26T04:40:57;31.63;;;7.93;;
6499;SDS011;3283;52.330;9.772;2022-10-26T04:43:22;20.10;;;7.03;;
6499;SDS011;3283;52.330;9.772;2022-10-26T04:45:48;18.43;;;6.70;;
6499;SDS011;3283;52.330;9.772;2022-10-26T04:48:14;19.53;;;7.40;;
6499;SDS011;3283;52.330;9.772;2022-10-26T04:50:39;23.30;;;6.93;;
6499;SDS011;3283;52.330;9.772;2022-10-26T04:53:08;29.80;;;7.23;;
6499;SDS011;3283;52.330;9.772;2022-10-26T04:55:34;22.17;;;6.73;;
6499;SDS011;3283;52.330;9.772;2022-10-26T04:58:00;25.87;;;7.60;;
6499;SDS011;3283;52.330;9.772;2022-10-26T05:00:25;27.17;;;7.87;;
6499;SDS011;3283;52.330;9.772;2022-10-26T05:02:51;19.13;;;6.70;;
6499;SDS011;3283;52.330;9.772;2022-10-26T05:05:22;22.30;;;7.13;;
6499;SDS011;3283;52.330;9.772;2022-10-26T05:07:54;27.63;;;8.37;;
6499;SDS011;3283;52.330;9.772;2022-10-26T05:10:20;25.17;;;7.70;;
6499;SDS011;3283;52.330;9.772;2022-10-26T05:12:52;22.40;;;7.77;;
6499;SDS011;3283;52.330;9.772;2022-10-26T05:15:19;24.33;;;7.83;;
6499;SDS011;3283;52.330;9.772;2022-10-26T05:17:45;25.90;;;8.33;;
6499;SDS011;3283;52.330;9.772;2022-10-26T05:20:11;24.20;;;6.60;;
6499;SDS011;3283;52.330;9.772;2022-10-26T05:22:39;26.77;;;8.80;;
6499;SDS011;3283;52.330;9.772;2022-10-26T05:25:05;33.27;;;7.70;;
6499;SDS011;3283;52.330;9.772;2022-10-26T05:27:31;30.60;;;8.20;;
6499;SDS011;3283;52.330;9.772;2022-10-26T05:29:56;20.70;;;6.70;;
6499;SDS011;3283;52.330;9.772;2022-10-26T05:32:22;20.93;;;7.57;;
6499;SDS011;3283;52.330;9.772;2022-10-26T05:34:47;22.57;;;8.17;;
6499;SDS011;3283;52.330;9.772;2022-10-26T05:37:13;20.67;;;7.90;;
6499;SDS011;3283;52.330;9.772;2022-10-26T05:39:38;23.63;;;8.30;;
6499;SDS011;3283;52.330;9.772;2022-10-26T05:42:04;27.57;;;8.60;;
6499;SDS011;3283;52.330;9.772;2022-10-26T05:44:29;19.80;;;7.77;;
6499;SDS011;3283;52.330;9.772;2022-10-26T05:46:55;32.00;;;8.90;;
6499;SDS011;3283;52.330;9.772;2022-10-26T05:49:20;35.13;;;9.47;;
6499;SDS011;3283;52.330;9.772;2022-10-26T05:51:45;26.77;;;8.37;;
6499;SDS011;3283;52.330;9.772;2022-10-26T05:54:11;20.30;;;7.20;;
6499;SDS011;3283;52.330;9.772;2022-10-26T05:56:39;21.30;;;7.50;;
6499;SDS011;3283;52.330;9.772;2022-10-26T05:59:12;27.73;;;8.37;;
6499;SDS011;3283;52.330;9.772;2022-10-26T06:01:51;24.77;;;7.47;;
6499;SDS011;3283;52.330;9.772;2022-10-26T06:07:09;21.87;;;8.20;;
6499;SDS011;3283;52.330;9.772;2022-10-26T06:09:37;19.77;;;7.67;;
6499;SDS011;3283;52.330;9.772;2022-10-26T06:12:04;22.67;;;7.60;;
6499;SDS011;3283;52.330;9.772;2022-10-26T06:14:31;21.97;;;8.20;;
6499;SDS011;3283;52.330;9.772;2022-10-26T06:19:42;20.57;;;7.70;;
6499;SDS011;3283;52.330;9.772;2022-10-26T06:22:26;31.33;;;9.17;;
6499;SDS011;3283;52.330;9.772;2022-10-26T06:25:26;25.50;;;9.43;;
6499;SDS011;3283;52.330;9.772;2022-10-26T06:30:47;27.93;;;10.40;;
6499;SDS011;3283;52.330;9.772;2022-10-26T06:33:12;29.60;;;11.00;;
6499;SDS011;3283;52.330;9.772;2022-10-26T06:38:15;41.23;;;9.90;;
6499;SDS011;3283;52.330;9.772;2022-10-26T06:40:43;26.90;;;10.87;;
6499;SDS011;3283;52.330;9.772;2022-10-26T06:43:13;26.90;;;10.53;;
6499;SDS011;3283;52.330;9.772;2022-10-26T06:48:48;23.13;;;10.77;;
6499;SDS011;3283;52.330;9.772;2022-10-26T06:51:18;36.30;;;14.03;;
6499;SDS011;3283;52.330;9.772;2022-10-26T06:56:45;31.27;;;10.43;;
6499;SDS011;3283;52.330;9.772;2022-10-26T06:59:27;33.03;;;10.83;;
6499;SDS011;3283;52.330;9.772;2022-10-26T07:01:54;25.73;;;10.10;;
6499;SDS011;3283;52.330;9.772;2022-10-26T07:04:19;23.63;;;8.40;;
6499;SDS011;3283;52.330;9.772;2022-10-26T07:06:45;27.50;;;10.00;;
6499;SDS011;3283;52.330;9.772;2022-10-26T07:09:11;17.10;;;7.77;;
6499;SDS011;3283;52.330;9.772;2022-10-26T07:11:36;27.20;;;8.97;;
6499;SDS011;3283;52.330;9.772;2022-10-26T07:14:01;27.33;;;8.03;;
6499;SDS011;3283;52.330;9.772;2022-10-26T07:16:27;20.57;;;7.43;;
6499;SDS011;3283;52.330;9.772;2022-10-26T07:18:53;23.03;;;7.80;;
6499;SDS011;3283;52.330;9.772;2022-10-26T07:21:19;23.07;;;8.37;;
6499;SDS011;3283;52.330;9.772;2022-10-26T07:23:44;23.40;;;8.70;;
6499;SDS011;3283;52.330;9.772;2022-10-26T07:26:09;21.77;;;6.90;;
6499;SDS011;3283;52.330;9.772;2022-10-26T07:28:35;26.33;;;6.80;;
6499;SDS011;3283;52.330;9.772;2022-10-26T07:31:00;13.60;;;5.10;;
6499;SDS011;3283;52.330;9.772;2022-10-26T07:33:26;23.13;;;7.03;;
6499;SDS011;3283;52.330;9.772;2022-10-26T07:35:51;18.00;;;6.33;;
6499;SDS011;3283;52.330;9.772;2022-10-26T07:38:18;23.67;;;7.33;;
6499;SDS011;3283;52.330;9.772;2022-10-26T07:40:43;21.33;;;5.83;;
6499;SDS011;3283;52.330;9.772;2022-10-26T07:43:09;15.77;;;5.60;;
6499;SDS011;3283;52.330;9.772;2022-10-26T07:45:34;16.23;;;5.33;;
6499;SDS011;3283;52.330;9.772;2022-10-26T07:48:01;18.13;;;6.30;;
6499;SDS011;3283;52.330;9.772;2022-10-26T07:50:26;22.60;;;7.13;;
6499;SDS011;3283;52.330;9.772;2022-10-26T07:52:52;21.87;;;5.87;;
6499;SDS011;3283;52.330;9.772;2022-10-26T07:55:18;18.80;;;6.20;;
6499;SDS011;3283;52.330;9.772;2022-10-26T07:57:44;17.37;;;5.40;;
6499;SDS011;3283;52.330;9.772;2022-10-26T08:00:10;23.90;;;6.60;;
6499;SDS011;3283;52.330;9.772;2022-10-26T08:02:36;19.03;;;5.50;;
6499;SDS011;3283;52.330;9.772;2022-10-26T08:05:02;20.43;;;6.03;;
6499;SDS011;3283;52.330;9.772;2022-10-26T08:07:28;26.00;;;7.03;;
6499;SDS011;3283;52.330;9.772;2022-10-26T08:09:54;24.70;;;6.10;;
6499;SDS011;3283;52.330;9.772;2022-10-26T08:12:19;15.70;;;5.30;;
6499;SDS011;3283;52.330;9.772;2022-10-26T08:14:45;19.80;;;5.97;;
6499;SDS011;3283;52.330;9.772;2022-10-26T08:17:10;21.50;;;6.47;;
6499;SDS011;3283;52.330;9.772;2022-10-26T08:19:36;20.23;;;6.10;;
6499;SDS011;3283;52.330;9.772;2022-10-26T08:22:02;20.67;;;6.07;;
6499;SDS011;3283;52.330;9.772;2022-10-26T08:24:27;21.73;;;6.00;;
6499;SDS011;3283;52.330;9.772;2022-10-26T08:26:53;19.93;;;6.10;;
6499;SDS011;3283;52.330;9.772;2022-10-26T08:29:19;25.20;;;6.60;;
6499;SDS011;3283;52.330;9.772;2022-10-26T08:31:45;23.77;;;6.60;;
6499;SDS011;3283;52.330;9.772;2022-10-26T08:34:11;19.83;;;6.43;;
6499;SDS011;3283;52.330;9.772;2022-10-26T08:36:37;16.50;;;5.13;;
6499;SDS011;3283;52.330;9.772;2022-10-26T08:39:02;24.77;;;6.97;;
6499;SDS011;3283;52.330;9.772;2022-10-26T08:41:39;20.30;;;5.83;;
6499;SDS011;3283;52.330;9.772;2022-10-26T08:44:19;27.57;;;6.60;;
6499;SDS011;3283;52.330;9.772;2022-10-26T08:46:50;20.03;;;6.40;;
6499;SDS011;3283;52.330;9.772;2022-10-26T08:49:41;22.90;;;6.47;;
6499;SDS011;3283;52.330;9.772;2022-10-26T08:52:13;21.03;;;7.07;;
6499;SDS011;3283;52.330;9.772;2022-10-26T08:54:52;20.73;;;6.77;;
6499;SDS011;3283;52.330;9.772;2022-10-26T08:59:58;22.83;;;8.60;;
6499;SDS011;3283;52.330;9.772;2022-10-26T09:02:27;19.43;;;5.30;;
6499;SDS011;3283;52.330;9.772;2022-10-26T09:04:52;16.93;;;4.87;;
6499;SDS011;3283;52.330;9.772;2022-10-26T09:23:39;17.97;;;4.87;;
6499;SDS011;3283;52.330;9.772;2022-10-26T09:26:26;20.73;;;5.20;;
6499;SDS011;3283;52.330;9.772;2022-10-26T09:28:56;15.77;;;3.83;;
6499;SDS011;3283;52.330;9.772;2022-10-26T09:31:25;20.17;;;4.83;;
6499;SDS011;3283;52.330;9.772;2022-10-26T09:33:51;23.90;;;5.93;;
6499;SDS011;3283;52.330;9.772;2022-10-26T09:36:18;28.00;;;5.03;;
6499;SDS011;3283;52.330;9.772;2022-10-26T09:49:51;22.43;;;5.80;;
6499;SDS011;3283;52.330;9.772;2022-10-26T09:52:19;20.80;;;5.60;;
6499;SDS011;3283;52.330;9.772;2022-10-26T09:54:45;28.57;;;6.17;;
6499;SDS011;3283;52.330;9.772;2022-10-26T09:57:14;20.40;;;4.73;;
6499;SDS011;3283;52.330;9.772;2022-10-26T09:59:43;19.57;;;4.73;;
6499;SDS011;3283;52.330;9.772;2022-10-26T10:05:26;23.80;;;5.63;;
6499;SDS011;3283;52.330;9.772;2022-10-26T10:11:17;26.53;;;5.53;;
6499;SDS011;3283;52.330;9.772;2022-10-26T10:13:38;17.03;;;4.60;;
6499;SDS011;3283;52.330;9.772;2022-10-26T10:18:43;18.90;;;4.43;;
6499;SDS011;3283;52.330;9.772;2022-10-26T10:21:34;19.60;;;5.13;;
6499;SDS011;3283;52.330;9.772;2022-10-26T10:24:02;25.20;;;5.97;;
6499;SDS011;3283;52.330;9.772;2022-10-26T10:26:55;32.00;;;6.10;;
6499;SDS011;3283;52.330;9.772;2022-10-26T10:29:47;26.37;;;5.63;;
6499;SDS011;3283;52.330;9.772;2022-10-26T10:34:40;18.70;;;4.80;;
6499;SDS011;3283;52.330;9.772;2022-10-26T10:37:12;20.53;;;4.67;;
6499;SDS011;3283;52.330;9.772;2022-10-26T10:39:57;20.97;;;4.63;;
6499;SDS011;3283;52.330;9.772;2022-10-26T10:42:45;22.70;;;5.63;;
6499;SDS011;3283;52.330;9.772;2022-10-26T10:45:44;23.73;;;5.53;;
6499;SDS011;3283;52.330;9.772;2022-10-26T11:07:03;24.50;;;4.80;;
6499;SDS011;3283;52.330;9.772;2022-10-26T11:09:31;18.77;;;4.57;;
6499;SDS011;3283;52.330;9.772;2022-10-26T11:12:08;22.13;;;4.90;;
6499;SDS011;3283;52.330;9.772;2022-10-26T11:14:38;18.43;;;4.40;;
6499;SDS011;3283;52.330;9.772;2022-10-26T11:17:17;18.23;;;4.20;;
6499;SDS011;3283;52.330;9.772;2022-10-26T11:19:54;15.83;;;4.27;;
6499;SDS011;3283;52.330;9.772;2022-10-26T11:22:24;22.40;;;4.97;;
6499;SDS011;3283;52.330;9.772;2022-10-26T11:28:09;25.03;;;4.97;;
6499;SDS011;3283;52.330;9.772;2022-10-26T11:30:34;18.83;;;4.60;;
6499;SDS011;3283;52.330;9.772;2022-10-26T11:35:55;23.20;;;4.93;;
6499;SDS011;3283;52.330;9.772;2022-10-26T11:43:49;30.10;;;6.40;;
6499;SDS011;3283;52.330;9.772;2022-10-26T11:46:36;30.50;;;5.77;;
6499;SDS011;3283;52.330;9.772;2022-10-26T11:49:16;20.60;;;4.80;;
6499;SDS011;3283;52.330;9.772;2022-10-26T11:52:04;25.67;;;5.43;;
6499;SDS011;3283;52.330;9.772;2022-10-26T11:54:43;22.40;;;5.10;;
6499;SDS011;3283;52.330;9.772;2022-10-26T11:57:11;20.60;;;4.77;;
6499;SDS011;3283;52.330;9.772;2022-10-26T11:59:44;20.73;;;5.03;;
6499;SDS011;3283;52.330;9.772;2022-10-26T12:04:42;25.27;;;5.70;;
6499;SDS011;3283;52.330;9.772;2022-10-26T12:07:15;22.93;;;5.03;;
6499;SDS011;3283;52.330;9.772;2022-10-26T12:09:48;21.47;;;5.27;;
6499;SDS011;3283;52.330;9.772;2022-10-26T12:12:20;24.47;;;5.50;;
6499;SDS011;3283;52.330;9.772;2022-10-26T12:14:50;22.10;;;4.83;;
6499;SDS011;3283;52.330;9.772;2022-10-26T12:20:28;26.30;;;5.10;;
6499;SDS011;3283;52.330;9.772;2022-10-26T12:23:19;25.53;;;5.20;;
6499;SDS011;3283;52.330;9.772;2022-10-26T12:25:46;20.07;;;4.67;;
6499;SDS011;3283;52.330;9.772;2022-10-26T12:31:51;21.97;;;5.00;;
6499;SDS011;3283;52.330;9.772;2022-10-26T12:34:01;33.30;;;6.43;;
6499;SDS011;3283;52.330;9.772;2022-10-26T12:39:34;21.83;;;5.83;;
6499;SDS011;3283;52.330;9.772;2022-10-26T12:50:17;27.23;;;5.90;;
6499;SDS011;3283;52.330;9.772;2022-10-26T13:00:17;25.73;;;5.87;;
6499;SDS011;3283;52.330;9.772;2022-10-26T13:03:12;25.40;;;4.80;;
6499;SDS011;3283;52.330;9.772;2022-10-26T13:08:23;42.13;;;8.00;;
6499;SDS011;3283;52.330;9.772;2022-10-26T13:11:02;22.13;;;5.03;;
6499;SDS011;3283;52.330;9.772;2022-10-26T13:13:29;26.73;;;5.70;;
6499;SDS011;3283;52.330;9.772;2022-10-26T13:15:57;26.37;;;5.33;;
6499;SDS011;3283;52.330;9.772;2022-10-26T13:18:24;24.20;;;5.13;;
6499;SDS011;3283;52.330;9.772;2022-10-26T13:21:09;20.63;;;4.90;;
6499;SDS011;3283;52.330;9.772;2022-10-26T13:23:41;28.40;;;5.80;;
6499;SDS011;3283;52.330;9.772;2022-10-26T13:26:15;22.50;;;4.83;;
6499;SDS011;3283;52.330;9.772;2022-10-26T13:33:57;33.17;;;6.73;;
6499;SDS011;3283;52.330;9.772;2022-10-26T13:36:31;15.87;;;4.00;;
6499;SDS011;3283;52.330;9.772;2022-10-26T13:39:02;25.03;;;5.40;;
6499;SDS011;3283;52.330;9.772;2022-10-26T13:41:44;25.27;;;5.80;;
6499;SDS011;3283;52.330;9.772;2022-10-26T13:47:16;22.30;;;5.07;;
6499;SDS011;3283;52.330;9.772;2022-10-26T13:49:54;19.33;;;4.27;;
6499;SDS011;3283;52.330;9.772;2022-10-26T13:52:28;25.17;;;5.43;;
6499;SDS011;3283;52.330;9.772;2022-10-26T13:55:27;27.37;;;6.00;;
6499;SDS011;3283;52.330;9.772;2022-10-26T14:03:33;21.53;;;5.10;;
6499;SDS011;3283;52.330;9.772;2022-10-26T14:05:59;23.60;;;5.17;;
6499;SDS011;3283;52.330;9.772;2022-10-26T14:08:28;21.57;;;4.97;;
6499;SDS011;3283;52.330;9.772;2022-10-26T14:10:55;24.83;;;5.60;;
6499;SDS011;3283;52.330;9.772;2022-10-26T14:13:24;18.87;;;4.33;;
6499;SDS011;3283;52.330;9.772;2022-10-26T14:15:52;23.83;;;5.33;;
6499;SDS011;3283;52.330;9.772;2022-10-26T14:18:27;26.40;;;5.77;;
6499;SDS011;3283;52.330;9.772;2022-10-26T14:21:02;22.20;;;5.10;;
6499;SDS011;3283;52.330;9.772;2022-10-26T14:23:33;25.03;;;5.20;;
6499;SDS011;3283;52.330;9.772;2022-10-26T14:26:00;27.47;;;5.10;;
6499;SDS011;3283;52.330;9.772;2022-10-26T14:28:28;29.07;;;6.33;;
6499;SDS011;3283;52.330;9.772;2022-10-26T14:31:12;22.10;;;5.00;;
6499;SDS011;3283;52.330;9.772;2022-10-26T14:33:44;30.10;;;6.77;;
6499;SDS011;3283;52.330;9.772;2022-10-26T14:36:10;22.70;;;5.50;;
6499;SDS011;3283;52.330;9.772;2022-10-26T14:38:46;26.80;;;5.90;;
6499;SDS011;3283;52.330;9.772;2022-10-26T14:41:16;32.87;;;5.20;;
6499;SDS011;3283;52.330;9.772;2022-10-26T14:43:42;23.40;;;4.93;;
6499;SDS011;3283;52.330;9.772;2022-10-26T14:46:13;28.27;;;6.00;;
6499;SDS011;3283;52.330;9.772;2022-10-26T14:48:48;19.67;;;4.30;;
6499;SDS011;3283;52.330;9.772;2022-10-26T14:51:26;24.83;;;5.27;;
6499;SDS011;3283;52.330;9.772;2022-10-26T14:53:55;31.67;;;6.23;;
6499;SDS011;3283;52.330;9.772;2022-10-26T14:56:23;27.03;;;5.33;;
6499;SDS011;3283;52.330;9.772;2022-10-26T14:58:55;36.93;;;7.80;;
6499;SDS011;3283;52.330;9.772;2022-10-26T15:04:05;28.90;;;6.20;;
6499;SDS011;3283;52.330;9.772;2022-10-26T15:06:32;24.30;;;5.13;;
6499;SDS011;3283;52.330;9.772;2022-10-26T15:09:01;25.90;;;5.53;;
6499;SDS011;3283;52.330;9.772;2022-10-26T15:11:29;25.93;;;5.60;;
6499;SDS011;3283;52.330;9.772;2022-10-26T15:13:57;29.23;;;6.57;;
6499;SDS011;3283;52.330;9.772;2022-10-26T15:16:24;33.87;;;7.27;;
6499;SDS011;3283;52.330;9.772;2022-10-26T15:19:14;24.57;;;5.50;;
6499;SDS011;3283;52.330;9.772;2022-10-26T15:21:44;20.50;;;4.57;;
6499;SDS011;3283;52.330;9.772;2022-10-26T15:26:48;22.40;;;5.40;;
6499;SDS011;3283;52.330;9.772;2022-10-26T15:32:05;33.47;;;6.77;;
6499;SDS011;3283;52.330;9.772;2022-10-26T15:34:48;21.93;;;4.97;;
6499;SDS011;3283;52.330;9.772;2022-10-26T15:37:14;26.00;;;5.93;;
6499;SDS011;3283;52.330;9.772;2022-10-26T15:39:40;26.30;;;5.67;;
6499;SDS011;3283;52.330;9.772;2022-10-26T15:42:08;25.60;;;5.90;;
6499;SDS011;3283;52.330;9.772;2022-10-26T15:44:37;42.03;;;8.90;;
6499;SDS011;3283;52.330;9.772;2022-10-26T15:47:03;35.53;;;7.20;;
6499;SDS011;3283;52.330;9.772;2022-10-26T15:49:28;29.03;;;5.90;;
6499;SDS011;3283;52.330;9.772;2022-10-26T15:51:53;32.30;;;6.23;;
6499;SDS011;3283;52.330;9.772;2022-10-26T15:54:19;28.70;;;6.07;;
6499;SDS011;3283;52.330;9.772;2022-10-26T15:56:45;24.17;;;5.83;;
6499;SDS011;3283;52.330;9.772;2022-10-26T15:59:17;26.27;;;5.90;;
6499;SDS011;3283;52.330;9.772;2022-10-26T16:01:43;23.13;;;5.60;;
6499;SDS011;3283;52.330;9.772;2022-10-26T16:04:09;31.40;;;6.50;;
6499;SDS011;3283;52.330;9.772;2022-10-26T16:06:36;35.47;;;7.00;;
6499;SDS011;3283;52.330;9.772;2022-10-26T16:09:04;16.23;;;4.53;;
6499;SDS011;3283;52.330;9.772;2022-10-26T16:11:31;30.48;;;6.93;;
6499;SDS011;3283;52.330;9.772;2022-10-26T16:13:56;38.40;;;7.30;;
6499;SDS011;3283;52.330;9.772;2022-10-26T16:16:22;32.50;;;7.43;;
6499;SDS011;3283;52.330;9.772;2022-10-26T16:18:51;28.87;;;6.10;;
6499;SDS011;3283;52.330;9.772;2022-10-26T16:21:17;30.13;;;6.60;;
6499;SDS011;3283;52.330;9.772;2022-10-26T16:23:44;25.80;;;5.70;;
6499;SDS011;3283;52.330;9.772;2022-10-26T16:26:11;20.27;;;4.73;;
6499;SDS011;3283;52.330;9.772;2022-10-26T16:28:37;26.90;;;6.17;;
6499;SDS011;3283;52.330;9.772;2022-10-26T16:31:04;21.83;;;5.53;;
6499;SDS011;3283;52.330;9.772;2022-10-26T16:33:35;27.90;;;6.60;;
6499;SDS011;3283;52.330;9.772;2022-10-26T16:36:00;21.40;;;5.60;;
6499;SDS011;3283;52.330;9.772;2022-10-26T16:38:27;31.93;;;7.20;;
6499;SDS011;3283;52.330;9.772;2022-10-26T16:41:02;23.07;;;5.63;;
6499;SDS011;3283;52.330;9.772;2022-10-26T16:43:30;25.27;;;6.10;;
6499;SDS011;3283;52.330;9.772;2022-10-26T16:45:56;37.53;;;7.77;;
6499;SDS011;3283;52.330;9.772;2022-10-26T16:48:22;32.10;;;5.70;;
6499;SDS011;3283;52.330;9.772;2022-10-26T16:50:47;27.77;;;6.27;;
6499;SDS011;3283;52.330;9.772;2022-10-26T16:53:13;35.00;;;8.00;;
6499;SDS011;3283;52.330;9.772;2022-10-26T16:55:38;19.30;;;4.80;;
6499;SDS011;3283;52.330;9.772;2022-10-26T16:58:04;32.53;;;7.70;;
6499;SDS011;3283;52.330;9.772;2022-10-26T17:00:29;28.37;;;6.53;;
6499;SDS011;3283;52.330;9.772;2022-10-26T17:02:55;30.30;;;5.70;;
6499;SDS011;3283;52.330;9.772;2022-10-26T17:05:20;24.33;;;6.23;;
6499;SDS011;3283;52.330;9.772;2022-10-26T17:07:46;37.97;;;7.93;;
6499;SDS011;3283;52.330;9.772;2022-10-26T17:10:11;39.90;;;7.17;;
6499;SDS011;3283;52.330;9.772;2022-10-26T17:12:37;22.53;;;5.40;;
6499;SDS011;3283;52.330;9.772;2022-10-26T17:15:02;21.77;;;5.10;;
6499;SDS011;3283;52.330;9.772;2022-10-26T17:17:28;26.43;;;6.03;;
6499;SDS011;3283;52.330;9.772;2022-10-26T17:19:53;29.73;;;6.07;;
6499;SDS011;3283;52.330;9.772;2022-10-26T17:22:19;26.37;;;5.77;;
6499;SDS011;3283;52.330;9.772;2022-10-26T17:24:44;38.23;;;7.70;;
6499;SDS011;3283;52.330;9.772;2022-10-26T17:27:09;44.60;;;6.30;;
6499;SDS011;3283;52.330;9.772;2022-10-26T17:29:35;31.50;;;6.90;;
6499;SDS011;3283;52.330;9.772;2022-10-26T17:32:00;29.60;;;6.53;;
6499;SDS011;3283;52.330;9.772;2022-10-26T17:34:26;29.10;;;6.43;;
6499;SDS011;3283;52.330;9.772;2022-10-26T17:36:51;33.77;;;8.83;;
6499;SDS011;3283;52.330;9.772;2022-10-26T17:39:16;28.87;;;6.57;;
6499;SDS011;3283;52.330;9.772;2022-10-26T17:41:43;43.13;;;8.63;;
6499;SDS011;3283;52.330;9.772;2022-10-26T17:44:09;33.27;;;6.33;;
6499;SDS011;3283;52.330;9.772;2022-10-26T17:46:34;37.17;;;6.90;;
6499;SDS011;3283;52.330;9.772;2022-10-26T17:48:59;39.50;;;7.73;;
6499;SDS011;3283;52.330;9.772;2022-10-26T17:51:26;32.30;;;7.50;;
6499;SDS011;3283;52.330;9.772;2022-10-26T17:53:52;47.33;;;10.60;;
6499;SDS011;3283;52.330;9.772;2022-10-26T17:58:52;28.37;;;6.60;;
6499;SDS011;3283;52.330;9.772;2022-10-26T18:01:25;36.57;;;7.80;;
6499;SDS011;3283;52.330;9.772;2022-10-26T18:03:51;41.57;;;9.07;;
6499;SDS011;3283;52.330;9.772;2022-10-26T18:06:17;32.00;;;7.07;;
6499;SDS011;3283;52.330;9.772;2022-10-26T18:08:43;33.90;;;7.20;;
6499;SDS011;3283;52.330;9.772;2022-10-26T18:11:13;26.47;;;6.27;;